Skip Navigation Links Skip Navigation Links

Current Weather

Porter County Muni, Valparaiso, Ind.

For information only: do not use for flight planning or navigation.
Latest weather
Observation time Saturday, October 19, 2019 4:56 AM CDT
Local time Saturday, October 19, 2019 5:28 AM CDT
Flight conditions Visual Meteorological Conditions
Winds
Wind direction East (90°)
Wind speed 6 mph
Visibility 10 mi.
Sky condition
Ceiling unlimited
Sky clear
Temperature 39°F
Dewpoint 33°F
Altimeter 29.92 in.Hg
Derived measurements
Relative humidity 79%
Wind chill 35°F
Density altitude -476 ft.
Sea-level pressure 29.93 in.Hg
Remarks
Fully automated report.
Automated weather observing station with precipitation discriminator.
METAR KVPZ 190956Z AUTO 09005KT 10SM CLR 04/01 A2992 RMK AO2 SLP134 T00390006

Settings

Location code

InnerDrive.Weather 4.0.6770.0 Release CLR 4.0.30319.42000
Copyright ©2018 Inner Drive Technology. All rights reserved. Portions Copyright ©1986-2018 David Braverman.

Find weather

Site navigation


Skip Navigation Links

Place info

Page info

PayPal - The safer, easier way to pay online!

Return home.

Copyright ©2019 Inner Drive Technology. Purveyors of fine, hand-crafted computer software. Page printed 2019-10-19T10:28:40 UTC.